Stewart, Texas
Current Conditions -  °F | °C
As of 5:55 AM on Tuesday 21 Oct 2014 (Local Time) from KRFI Reporting Station
Clear Clear  
Wind Chill: 53°   Ceiling: Unl
Heat Index: 53°   Visibility: 10mi
Dew Point: 53°   Wind: 0mph
Humidity: 100%   Direction: NA
Pressure: 30.07"   Gusts: NA
Location:  32.1449°N, 94.7416°W
Report Text: KRFI 211055Z AUTO 00000KT 10SM CLR 11/11 A3007 RMK AO2 T01140114
Loading
Personal Weather Stations






























Interactive Weather Map
Tropical Storm Tracking
New forecast layout! Learn more

10-Day Weather Forecast

Advertisements
Track Severe Weather on mobile